Airfield :
LOGIN :

Register | Disclaimer

   EN    FR    IT 

 










Legend :    VFR   Marginal VFR   IFR   Intensive IFR   Very Intensive IFR
Visi :
Ceiling :
>= 8 km
>= 3000ft
5 to 8 km
1000 to 3000 ft
1500m to 5 km
500 to 1000 ft
800 to 1500m
200 to 500 ft
< 800m
< 200 ft
Symbols :   Thunderstorms  Fog  Heavy snow  Heavy precipitations  Wind > 20 kt
SIGMETs :     Misc.  Thunderstorms  Icing  Turbulence  Mountain Waves  Volcanic Ashes






- Airport Elevation : 3 ft
- IATA code : DHR


EHKD - Den Helder De Kooy

CURRENT METAR :
  • 201455Z AUTO 08004KT 9999 SCT380 05/03 Q1016 BLU 10004KT CAVOK BECMG 2000 BR BKN002

EXPIRED METARs :
  • 201425Z AUTO 11004KT 080V140 9999 SCT340 06/03 Q1016 BLU 14004KT CAVOK
  • 201355Z AUTO 10004KT 060V140 9999 OVC310 06/03 Q1017 BLU 14004KT CAVOK
  • 201325Z AUTO 12005KT 080V170 9999 NCD 07/03 Q1017 BLU 14004KT CAVOK
  • 201255Z AUTO 14004KT 090V180 9999 SCT330 07/03 Q1017 BLU 14004KT CAVOK
  • 201225Z AUTO 16004KT 120V200 9999 NCD 07/03 Q1017 BLU 14004KT CAVOK

TAF TAF EHKD
Valid from the 20 at 14:00 until the 21 at 02:00 UTC


201401Z 2014/2102 12005KT CAVOK
BECMG 2015/2018 12010KT 2500 BR BKN002
PROB40
TEMPO 2015/2102 1000 BKN001



MET'MAP, your aeronautical weather chart ! - Copyright ORBIFLY December 2007 - Disclaimer

ORBIFLY MET'MAP TEAM :

Programming & Development : Alexandra Zaïnal
Concept & Development : Baudouin d'Aumeries
Co-Development & Prog : Marc-Olivier Méhu
Technical & hardware support : Manuel Goepfert

Contact : metmap@orbifly.com




SOURCES & CREDITS :

   NOAA